Terminal Aerodrome Forecast
Issued by NWS Sioux Falls, SD

Home | Current Version | Previous Version | Graphics & Text | Print | Product List | Glossary On
Versions: 1 2 3 4 5 6 7 8 9 10 11 12 13 14 15
000
FTUS43 KFSD 141125
TAFHON
TAF
KHON 141125Z 1412/1512 31005KT P6SM FEW250
     FM141700 34005KT P6SM BKN100
     FM150000 01005KT P6SM BKN080
     FM150900 31006KT P6SM SCT080=

USA.gov is the U.S. government's official web portal to all federal, state and local government web resources and services.